Almond, Wisconsin
Current Conditions -  °F | °C
As of 5:07 AM on Monday 22 Dec 2014 (Local Time) from KY50 Reporting Station
Haze Haze  
Wind Chill: 27°   Ceiling: 1400
Heat Index: 34°   Visibility: 3mi
Dew Point: 32°   Wind: 8mph
Humidity: 93%   Direction: 140°SE
Pressure: 29.88"   Gusts: NA
Location:  44.26°N, 89.41°W
Report Text: KY50 221107Z AUTO 14007KT 3SM UP BR FEW001 OVC014 01/00 A2988 RMK AO2 TSNO UPB02 P0000
Loading
Personal Weather Stations






























Interactive Weather Map New forecast layout! Learn more

10-Day Weather Forecast

Advertisements
Track Severe Weather on mobile